Time;durP1;ratioP1;P1;durP2;ratioP2;P2;SDS_P1;SDS_P2;PMS_P1;PMS_P2;Temp;Humidity;BMP_temperature;BMP_pressure;BME280_temperature;BME280_humidity;BME280_pressure;Samples;Min_cycle;Max_cycle;Signal;HPM_P1;HPM_P2
2022/01/29 00:00:11;;;;;;;;;27.00;21.50;;;;;7.14;100.00;103191.56;5122373;27;44776;-82
2022/01/29 00:02:37;;;;;;;;;23.25;23.25;;;;;7.17;100.00;103202.13;5118645;27;45413;-81
2022/01/29 00:05:02;;;;;;;;;28.75;23.50;;;;;7.19;100.00;103195.03;5117745;27;45682;-81
2022/01/29 00:07:28;;;;;;;;;26.75;23.00;;;;;7.17;100.00;103195.06;5117667;27;44858;-81
2022/01/29 00:10:00;;;;;;;;;28.50;22.50;;;;;7.17;100.00;103188.91;5099527;27;45391;-81
2022/01/29 00:12:26;;;;;;;;;24.00;23.25;;;;;7.20;100.00;103191.47;5099052;27;45386;-80
2022/01/29 00:14:51;;;;;;;;;28.50;25.25;;;;;7.16;100.00;103189.81;5117510;27;45507;-79
2022/01/29 00:17:16;;;;;;;;;26.00;23.75;;;;;7.17;100.00;103180.97;5099148;27;48827;-81
2022/01/29 00:19:42;;;;;;;;;17.75;17.25;;;;;7.19;100.00;103187.97;5117986;27;45430;-81
2022/01/29 00:22:07;;;;;;;;;29.50;23.50;;;;;7.21;100.00;103186.19;5119643;27;44933;-81
2022/01/29 00:24:33;;;;;;;;;25.75;22.75;;;;;7.21;100.00;103180.91;5123841;27;45098;-81
2022/01/29 00:26:58;;;;;;;;;21.00;21.00;;;;;7.22;100.00;103166.78;5117638;27;45426;-80
2022/01/29 00:29:24;;;;;;;;;24.00;21.67;;;;;7.16;100.00;103166.00;5118136;27;44643;-80
2022/01/29 00:31:49;;;;;;;;;24.00;23.00;;;;;7.17;100.00;103163.34;5117786;27;44780;-80
2022/01/29 00:34:15;;;;;;;;;20.75;19.25;;;;;7.18;100.00;103149.22;5117659;27;45031;-81
2022/01/29 00:36:40;;;;;;;;;25.50;21.75;;;;;7.19;100.00;103148.31;5098867;27;44812;-80
2022/01/29 00:39:05;;;;;;;;;23.25;21.00;;;;;7.18;100.00;103143.06;5117290;27;44975;-80
2022/01/29 00:41:31;;;;;;;;;21.75;21.25;;;;;7.15;100.00;103137.81;5117739;27;45315;-81
2022/01/29 00:43:57;;;;;;;;;26.50;20.75;;;;;7.14;100.00;103138.72;5116906;27;45428;-81
2022/01/29 00:46:22;;;;;;;;;25.75;22.00;;;;;7.17;100.00;103136.03;5115865;27;44794;-81
2022/01/29 00:48:47;;;;;;;;;21.00;18.50;;;;;7.05;100.00;103134.41;5100440;27;45540;-81
2022/01/29 00:51:13;;;;;;;;;26.25;22.00;;;;;7.05;100.00;103128.25;5123788;27;45329;-81
2022/01/29 00:53:38;;;;;;;;;22.50;20.00;;;;;7.05;100.00;103128.25;5098865;27;46462;-81
2022/01/29 00:56:06;;;;;;;;;21.25;19.25;;;;;7.03;100.00;103128.28;5117296;27;45329;-81
2022/01/29 00:58:32;;;;;;;;;29.00;18.00;;;;;7.01;100.00;103123.91;5117269;27;45468;-80
2022/01/29 01:00:58;;;;;;;;;20.00;20.00;;;;;6.92;100.00;103125.81;5117182;27;44796;-81
2022/01/29 01:03:23;;;;;;;;;24.00;22.75;;;;;6.90;100.00;103124.06;5098057;27;45734;-80
2022/01/29 01:05:49;;;;;;;;;16.00;14.50;;;;;6.86;100.00;103125.00;5116390;27;45239;-81
2022/01/29 01:08:15;;;;;;;;;21.75;21.75;;;;;6.86;100.00;103111.78;5116451;27;45302;-81
2022/01/29 01:10:40;;;;;;;;;24.00;23.00;;;;;6.83;100.00;103119.75;5117522;27;45332;-81
2022/01/29 01:13:05;;;;;;;;;27.75;22.75;;;;;6.79;100.00;103113.63;5120379;27;45938;-80
2022/01/29 01:15:31;;;;;;;;;21.75;21.00;;;;;6.73;100.00;103104.94;5121679;27;45267;-80
2022/01/29 01:17:56;;;;;;;;;27.00;25.50;;;;;6.68;100.00;103127.00;5120672;27;45308;-81
2022/01/29 01:20:22;;;;;;;;;27.50;17.50;;;;;6.64;100.00;103133.19;5124078;27;44942;-79
2022/01/29 01:22:47;;;;;;;;;18.00;14.25;;;;;6.68;100.00;103128.75;5122978;27;45314;-79
2022/01/29 01:25:13;;;;;;;;;21.75;20.75;;;;;6.64;100.00;103125.28;5119075;27;44781;-80
2022/01/29 01:27:38;;;;;;;;;22.50;17.00;;;;;6.57;100.00;103131.50;5118631;27;45595;-81
2022/01/29 01:30:05;;;;;;;;;26.00;22.00;;;;;6.50;100.00;103140.41;5117939;27;44824;-80
2022/01/29 01:32:30;;;;;;;;;20.25;18.50;;;;;6.44;100.00;103143.13;5117525;27;45449;-80
2022/01/29 01:35:06;;;;;;;;;19.00;16.75;;;;;6.43;100.00;103139.59;5116619;27;45198;-79
2022/01/29 01:37:39;;;;;;;;;19.00;19.00;;;;;6.47;100.00;103142.19;5116631;27;44856;-80
2022/01/29 01:40:07;;;;;;;;;27.00;19.50;;;;;6.48;100.00;103142.19;5116414;27;45333;-81
2022/01/29 01:42:32;;;;;;;;;26.75;20.25;;;;;6.49;100.00;103137.78;5117095;27;45407;-80
2022/01/29 01:44:58;;;;;;;;;19.50;19.00;;;;;6.46;100.00;103146.59;5098443;27;45456;-79
2022/01/29 01:47:23;;;;;;;;;19.50;19.50;;;;;6.48;100.00;103150.13;5117218;27;44856;-81
2022/01/29 01:49:49;;;;;;;;;22.50;19.00;;;;;6.49;100.00;103138.66;5123967;27;45710;-80
2022/01/29 01:52:14;;;;;;;;;21.00;16.00;;;;;6.45;100.00;103142.22;5119419;27;45077;-80
2022/01/29 01:54:42;;;;;;;;;23.50;18.50;;;;;6.46;100.00;103130.75;5117300;27;44791;-80
2022/01/29 01:57:08;;;;;;;;;19.75;18.25;;;;;6.46;100.00;103141.31;5119111;27;45465;-80
2022/01/29 01:59:34;;;;;;;;;22.00;20.00;;;;;6.47;100.00;103129.00;5120711;27;45557;-80
2022/01/29 02:02:00;;;;;;;;;20.75;19.25;;;;;6.47;100.00;103134.28;5101880;27;45022;-80
2022/01/29 02:04:26;;;;;;;;;25.25;20.75;;;;;6.48;100.00;103136.00;5100429;27;44841;-80
2022/01/29 02:06:53;;;;;;;;;25.50;23.00;;;;;6.38;100.00;103130.88;5119915;27;45490;-80
2022/01/29 02:09:20;;;;;;;;;22.75;21.00;;;;;6.40;100.00;103129.06;5121466;27;45394;-80
2022/01/29 02:11:52;;;;;;;;;20.75;20.50;;;;;6.43;100.00;103126.41;5119568;27;45551;-81
2022/01/29 02:14:19;;;;;;;;;15.25;15.25;;;;;6.39;100.00;103116.75;5119800;27;45359;-80
2022/01/29 02:16:44;;;;;;;;;25.50;17.00;;;;;6.40;100.00;103121.16;5101933;27;45278;-80
2022/01/29 02:19:10;;;;;;;;;17.25;17.25;;;;;6.42;100.00;103106.16;5120428;27;45200;-80
2022/01/29 02:21:39;;;;;;;;;27.00;22.75;;;;;6.42;100.00;103106.16;5126183;27;45298;-79
2022/01/29 02:24:06;;;;;;;;;26.00;22.25;;;;;6.39;100.00;103108.84;5122278;27;45330;-79
2022/01/29 02:26:31;;;;;;;;;21.25;17.25;;;;;6.35;100.00;103093.94;5119688;27;44983;-79
2022/01/29 02:28:57;;;;;;;;;21.25;19.25;;;;;6.33;100.00;103102.75;5101063;27;45424;-80
2022/01/29 02:31:22;;;;;;;;;27.25;21.00;;;;;6.34;100.00;103091.31;5118358;27;45431;-79
2022/01/29 02:33:48;;;;;;;;;29.33;28.67;;;;;6.36;100.00;103092.16;5100499;27;44887;-80
2022/01/29 02:36:13;;;;;;;;;21.00;20.25;;;;;6.39;100.00;103100.06;5119521;27;45511;-79
2022/01/29 02:38:39;;;;;;;;;29.50;22.50;;;;;6.35;100.00;103093.06;5119118;27;45423;-79
2022/01/29 02:41:06;;;;;;;;;27.25;21.25;;;;;6.36;100.00;103085.09;5119333;27;45106;-81
2022/01/29 02:43:41;;;;;;;;;28.00;21.00;;;;;6.35;100.00;103086.00;5119125;27;44768;-80
2022/01/29 02:46:19;;;;;;;;;33.00;23.00;;;;;6.36;100.00;103063.13;5118864;27;45253;-81
2022/01/29 02:48:47;;;;;;;;;26.00;21.50;;;;;6.40;100.00;103076.25;5119240;27;45362;-80
2022/01/29 02:51:13;;;;;;;;;28.25;20.00;;;;;6.40;100.00;103072.75;5119074;27;45410;-79
2022/01/29 02:53:38;;;;;;;;;28.75;25.75;;;;;6.42;100.00;103065.69;5124358;27;44710;-79
2022/01/29 02:56:05;;;;;;;;;25.00;21.25;;;;;6.46;100.00;103056.84;5124309;27;44732;-80
2022/01/29 02:58:30;;;;;;;;;25.00;21.50;;;;;6.46;100.00;103050.69;5119648;27;44720;-79
2022/01/29 03:00:56;;;;;;;;;19.75;19.75;;;;;6.44;100.00;103046.31;5118514;27;45118;-80
2022/01/29 03:03:21;;;;;;;;;22.50;18.50;;;;;6.49;100.00;103045.38;5118409;27;44672;-79
2022/01/29 03:05:47;;;;;;;;;18.75;17.50;;;;;6.52;100.00;103042.66;5120805;27;45215;-80
2022/01/29 03:08:13;;;;;;;;;22.50;20.50;;;;;6.50;100.00;103044.47;5099889;27;45342;-80
2022/01/29 03:10:38;;;;;;;;;25.50;20.75;;;;;6.51;100.00;103043.56;5118778;27;45035;-80
2022/01/29 03:13:04;;;;;;;;;18.50;17.00;;;;;6.54;100.00;103041.78;5118310;27;44787;-79
2022/01/29 03:15:30;;;;;;;;;26.75;18.50;;;;;6.59;100.00;103029.38;5118566;27;45632;-80
2022/01/29 03:17:56;;;;;;;;;22.25;19.00;;;;;6.60;100.00;103023.19;5118782;27;44877;-80
2022/01/29 03:20:21;;;;;;;;;19.25;15.75;;;;;6.59;100.00;103029.38;5117594;27;45446;-79
2022/01/29 03:22:47;;;;;;;;;27.75;20.75;;;;;6.54;100.00;103032.97;5120791;27;44853;-79
2022/01/29 03:25:12;;;;;;;;;25.50;19.75;;;;;6.56;100.00;103033.81;5119439;27;44789;-78
2022/01/29 03:27:37;;;;;;;;;19.25;17.75;;;;;6.58;100.00;103035.56;5122303;27;45988;-80
2022/01/29 03:30:05;;;;;;;;;25.25;20.25;;;;;6.61;100.00;103018.78;5121250;27;45363;-80
2022/01/29 03:32:31;;;;;;;;;23.00;21.75;;;;;6.59;100.00;103017.94;5118590;27;44826;-79
2022/01/29 03:34:56;;;;;;;;;17.50;17.50;;;;;6.54;100.00;103023.28;5118597;27;45435;-80
2022/01/29 03:37:22;;;;;;;;;19.00;16.50;;;;;6.56;100.00;103032.06;5118522;27;45449;-79
2022/01/29 03:39:47;;;;;;;;;17.50;15.50;;;;;6.55;100.00;103035.59;5118182;27;45468;-78
2022/01/29 03:42:14;;;;;;;;;20.75;20.50;;;;;6.56;100.00;103039.97;5118284;27;44899;-78
2022/01/29 03:44:39;;;;;;;;;21.50;18.25;;;;;6.58;100.00;103035.56;5117858;27;45491;-79
2022/01/29 03:47:05;;;;;;;;;28.25;23.00;;;;;6.64;100.00;103040.75;5099510;27;44943;-78
2022/01/29 03:49:31;;;;;;;;;23.25;20.75;;;;;6.62;100.00;103042.56;5099311;27;46551;-79
2022/01/29 03:51:56;;;;;;;;;20.75;19.75;;;;;6.63;100.00;103036.38;5118006;27;44800;-79
2022/01/29 03:54:22;;;;;;;;;22.25;17.50;;;;;6.64;100.00;103046.03;5117985;27;45504;-79
2022/01/29 03:56:47;;;;;;;;;20.75;18.75;;;;;6.66;100.00;103038.09;5118258;27;44842;-78
2022/01/29 03:59:12;;;;;;;;;22.50;20.50;;;;;6.74;100.00;103032.72;5118084;27;45112;-78
2022/01/29 04:01:38;;;;;;;;;22.50;20.25;;;;;6.78;100.00;103032.66;5125560;27;44791;-79
2022/01/29 04:04:03;;;;;;;;;20.25;17.50;;;;;6.79;100.00;103025.59;5120147;27;44841;-79
2022/01/29 04:06:31;;;;;;;;;23.75;21.50;;;;;6.80;100.00;103036.13;5118077;27;44888;-77
2022/01/29 04:08:56;;;;;;;;;20.25;15.50;;;;;6.78;100.00;103026.50;5117765;27;46258;-78
2022/01/29 04:11:22;;;;;;;;;24.00;16.75;;;;;6.76;100.00;103031.78;5098843;27;45503;-78
2022/01/29 04:13:49;;;;;;;;;19.25;18.50;;;;;6.79;100.00;103033.50;5117682;27;45290;-78
2022/01/29 04:16:18;;;;;;;;;21.75;19.00;;;;;6.84;100.00;103029.91;5117876;27;44781;-79
2022/01/29 04:18:43;;;;;;;;;24.75;20.75;;;;;6.90;100.00;103026.28;5117262;27;45028;-78
2022/01/29 04:21:09;;;;;;;;;20.25;18.25;;;;;6.89;100.00;103021.91;5098638;27;45374;-79
2022/01/29 04:23:35;;;;;;;;;19.50;18.00;;;;;6.91;100.00;103026.28;5117439;27;44761;-79
2022/01/29 04:26:02;;;;;;;;;28.25;21.25;;;;;6.94;100.00;103015.66;5116628;27;44797;-79
2022/01/29 04:28:32;;;;;;;;;21.00;19.50;;;;;6.97;100.00;103021.81;5116842;27;44940;-78
2022/01/29 04:31:07;;;;;;;;;24.00;21.25;;;;;7.00;100.00;103011.19;5117409;27;45442;-79
2022/01/29 04:33:32;;;;;;;;;29.75;22.00;;;;;6.98;100.00;103021.78;5118101;27;44770;-78
2022/01/29 04:36:01;;;;;;;;;24.00;20.00;;;;;6.98;100.00;103026.19;5122758;27;44755;-78
2022/01/29 04:38:28;;;;;;;;;21.75;20.25;;;;;6.98;100.00;103034.13;5117877;27;45249;-79
2022/01/29 04:40:55;;;;;;;;;24.75;23.00;;;;;6.95;100.00;103035.91;5117731;27;45555;-79
2022/01/29 04:43:20;;;;;;;;;23.75;20.50;;;;;6.98;100.00;103042.91;5117076;27;45463;-79
2022/01/29 04:45:46;;;;;;;;;24.75;20.25;;;;;7.06;100.00;103029.56;5117367;27;44822;-78
2022/01/29 04:48:12;;;;;;;;;19.50;19.00;;;;;7.06;100.00;103022.53;5116403;27;45476;-78
2022/01/29 04:50:38;;;;;;;;;17.75;15.00;;;;;7.02;100.00;103019.97;5117370;27;44800;-78
2022/01/29 04:53:04;;;;;;;;;19.50;18.00;;;;;7.10;100.00;103015.41;5117409;27;45399;-79
2022/01/29 04:55:31;;;;;;;;;20.25;17.75;;;;;7.13;100.00;103018.91;5117263;27;44890;-79
2022/01/29 04:57:56;;;;;;;;;17.25;16.75;;;;;7.18;100.00;103010.91;5117097;27;45068;-78
2022/01/29 05:00:21;;;;;;;;;19.75;19.50;;;;;7.18;100.00;103016.19;5116902;27;45233;-78
2022/01/29 05:02:52;;;;;;;;;17.75;17.75;;;;;7.17;100.00;103017.09;5117368;27;44836;-79
2022/01/29 05:05:18;;;;;;;;;21.25;21.25;;;;;7.20;100.00;103009.09;5117392;27;45355;-79
2022/01/29 05:07:43;;;;;;;;;17.25;15.50;;;;;7.25;100.00;103014.31;5118167;27;45403;-79
2022/01/29 05:10:09;;;;;;;;;16.50;16.25;;;;;7.25;100.00;103014.31;5124401;27;44839;-78
2022/01/29 05:15:41;;;;;;;;;24.50;22.25;;;;;7.30;100.00;103015.09;5033120;28;45601;-79
2022/01/29 05:29:06;;;;;;;;;19.75;16.00;;;;;7.37;100.00;103009.69;5033013;28;45466;-79
2022/01/29 05:31:31;;;;;;;;;25.60;20.40;;;;;7.38;100.00;103008.78;5033964;28;45452;-79
2022/01/29 05:33:57;;;;;;;;;21.25;16.00;;;;;7.37;100.00;103014.97;5037242;28;45281;-80
2022/01/29 05:36:23;;;;;;;;;20.75;20.50;;;;;7.33;100.00;103023.00;5036502;28;45336;-80
2022/01/29 05:38:49;;;;;;;;;28.25;20.50;;;;;7.36;100.00;103012.38;5036724;28;45134;-79
2022/01/29 05:41:15;;;;;;;;;27.50;24.25;;;;;7.36;100.00;103015.00;5036129;28;45448;-79
2022/01/29 05:43:43;;;;;;;;;30.25;22.25;;;;;7.39;100.00;103012.31;5041885;28;44853;-78
2022/01/29 05:46:12;;;;;;;;;23.50;19.50;;;;;7.42;100.00;103012.25;5041485;28;45581;-78
2022/01/29 05:48:39;;;;;;;;;20.00;17.25;;;;;7.44;100.00;103000.75;5036132;28;45116;-78
2022/01/29 05:51:04;;;;;;;;;21.75;18.75;;;;;7.48;100.00;102998.91;5048558;27;45423;-78
2022/01/29 05:53:30;;;;;;;;;20.50;18.50;;;;;7.48;100.00;102998.91;5120151;27;45408;-78
2022/01/29 05:55:57;;;;;;;;;17.50;17.00;;;;;7.51;100.00;103000.66;5119664;27;44894;-78
2022/01/29 05:58:22;;;;;;;;;21.50;17.50;;;;;7.48;100.00;102997.16;5120140;27;45312;-78
2022/01/29 06:00:47;;;;;;;;;19.75;17.50;;;;;7.51;100.00;102992.72;5119901;27;45244;-79
2022/01/29 06:03:13;;;;;;;;;21.75;18.25;;;;;7.50;100.00;102994.50;5120104;27;44938;-79
2022/01/29 06:05:38;;;;;;;;;23.25;20.25;;;;;7.53;100.00;102999.72;5119946;27;45469;-79
2022/01/29 06:08:04;;;;;;;;;20.75;19.25;;;;;7.57;100.00;103001.41;5119882;27;45164;-79
2022/01/29 06:10:30;;;;;;;;;23.25;19.75;;;;;7.62;100.00;102999.53;5119373;27;45469;-79
2022/01/29 06:13:04;;;;;;;;;20.25;16.25;;;;;7.62;100.00;102996.91;5101111;27;45515;-80
2022/01/29 06:15:34;;;;;;;;;20.75;20.75;;;;;7.63;100.00;102996.00;5100768;27;45651;-78
2022/01/29 06:18:00;;;;;;;;;14.50;14.50;;;;;7.66;100.00;102997.72;5122188;27;45440;-79
2022/01/29 06:20:26;;;;;;;;;17.75;17.75;;;;;7.68;100.00;102993.25;5123871;27;45299;-79
2022/01/29 06:22:52;;;;;;;;;23.75;20.50;;;;;7.68;100.00;102995.91;5123241;27;44795;-79
2022/01/29 06:25:17;;;;;;;;;17.25;16.00;;;;;7.69;100.00;102995.91;5119209;27;45354;-80
2022/01/29 06:27:43;;;;;;;;;21.00;19.75;;;;;7.69;100.00;102997.69;5119738;27;45105;-79
2022/01/29 06:30:08;;;;;;;;;28.00;23.25;;;;;7.71;100.00;103002.03;5119439;27;44816;-79
2022/01/29 06:32:34;;;;;;;;;17.25;16.25;;;;;7.73;100.00;103007.28;5119385;27;45440;-80
2022/01/29 06:34:59;;;;;;;;;19.75;19.00;;;;;7.70;100.00;103004.72;5119537;27;44747;-80
2022/01/29 06:37:25;;;;;;;;;18.50;18.50;;;;;7.72;100.00;102997.59;5100797;27;46559;-79
2022/01/29 06:39:50;;;;;;;;;22.25;20.25;;;;;7.75;100.00;103002.84;5119000;27;44740;-79
2022/01/29 06:42:15;;;;;;;;;21.25;20.25;;;;;7.78;100.00;102997.47;5119392;27;44811;-79
2022/01/29 06:44:41;;;;;;;;;16.50;14.25;;;;;7.79;100.00;102991.31;5100701;27;45394;-79
2022/01/29 06:47:06;;;;;;;;;13.50;12.75;;;;;7.83;100.00;102993.00;5118992;27;45085;-78
2022/01/29 06:49:32;;;;;;;;;24.25;16.00;;;;;7.84;100.00;103000.03;5118844;27;45361;-80
2022/01/29 06:51:58;;;;;;;;;20.75;18.25;;;;;7.85;100.00;102987.66;5120329;27;44764;-79
2022/01/29 06:54:23;;;;;;;;;24.00;19.25;;;;;7.84;100.00;102989.44;5122966;27;44927;-80
2022/01/29 06:56:48;;;;;;;;;23.50;17.50;;;;;7.88;100.00;102984.94;5127200;27;45530;-80
2022/01/29 06:59:14;;;;;;;;;23.25;18.00;;;;;7.87;100.00;102988.50;5101331;27;45547;-80
2022/01/29 07:01:39;;;;;;;;;21.00;17.25;;;;;7.89;100.00;102984.06;5119557;27;45161;-79
2022/01/29 07:04:05;;;;;;;;;17.75;15.75;;;;;7.85;100.00;102985.91;5119124;27;45305;-79
2022/01/29 07:06:31;;;;;;;;;18.25;14.00;;;;;7.84;100.00;102991.22;5100242;27;46462;-80
2022/01/29 07:08:58;;;;;;;;;16.25;16.25;;;;;7.85;100.00;102988.53;5118494;27;45456;-81
2022/01/29 07:11:24;;;;;;;;;19.50;17.50;;;;;7.84;100.00;102985.94;5118906;27;45433;-79
2022/01/29 07:14:00;;;;;;;;;19.50;18.00;;;;;7.84;100.00;102986.81;5118019;27;45319;-80
2022/01/29 07:16:25;;;;;;;;;19.50;18.25;;;;;7.86;100.00;102986.75;5118608;27;45368;-80
2022/01/29 07:18:50;;;;;;;;;26.50;21.25;;;;;7.85;100.00;102988.53;5118599;27;45240;-81
2022/01/29 07:21:16;;;;;;;;;22.00;18.50;;;;;7.88;100.00;102977.00;5118697;27;44807;-80
2022/01/29 07:23:41;;;;;;;;;23.50;16.25;;;;;7.91;100.00;102975.19;5118417;27;45295;-81
2022/01/29 07:26:07;;;;;;;;;18.25;15.75;;;;;7.93;100.00;102967.22;5118772;27;45428;-80
2022/01/29 07:28:32;;;;;;;;;20.25;15.75;;;;;7.95;100.00;102973.34;5118704;27;44647;-81
2022/01/29 07:30:57;;;;;;;;;20.75;18.75;;;;;7.95;100.00;102968.94;5120896;27;45215;-81
2022/01/29 07:33:23;;;;;;;;;18.50;16.00;;;;;7.99;100.00;102972.41;5126274;27;44757;-81
2022/01/29 07:35:48;;;;;;;;;16.50;13.75;;;;;8.03;100.00;102973.22;5120861;27;45340;-81
2022/01/29 07:38:14;;;;;;;;;16.50;15.50;;;;;8.07;100.00;102974.88;5118397;27;44820;-80
2022/01/29 07:40:39;;;;;;;;;15.25;15.25;;;;;8.11;100.00;102982.72;5118710;27;45348;-80
2022/01/29 07:43:05;;;;;;;;;21.50;17.25;;;;;8.16;100.00;102979.97;5118535;27;45384;-81
2022/01/29 07:45:30;;;;;;;;;20.00;14.75;;;;;8.21;100.00;102972.81;5118359;27;45313;-81
2022/01/29 07:47:55;;;;;;;;;14.75;13.75;;;;;8.24;100.00;102978.03;5119118;27;44799;-81
2022/01/29 07:50:22;;;;;;;;;14.75;13.00;;;;;8.26;100.00;102973.56;5118084;27;44760;-82
2022/01/29 07:52:47;;;;;;;;;16.75;14.50;;;;;8.30;100.00;102975.25;5118779;27;45323;-81
2022/01/29 07:55:13;;;;;;;;;13.75;13.75;;;;;8.36;100.00;102975.16;5117826;27;45289;-80
2022/01/29 07:57:39;;;;;;;;;11.50;11.25;;;;;8.40;100.00;102968.88;5118967;27;44830;-81
2022/01/29 08:00:05;;;;;;;;;12.60;12.20;;;;;8.43;100.00;102974.13;5120703;27;45162;-83
2022/01/29 08:02:30;;;;;;;;;13.50;13.25;;;;;8.43;100.00;102970.63;5120633;27;44963;-81
2022/01/29 08:04:56;;;;;;;;;15.00;13.50;;;;;8.39;100.00;102963.63;5119588;27;45450;-83
2022/01/29 08:07:21;;;;;;;;;16.50;14.75;;;;;8.40;100.00;102968.03;5121104;27;45379;-82
2022/01/29 08:09:47;;;;;;;;;12.25;12.00;;;;;8.47;100.00;102974.94;5122456;27;44752;-80
2022/01/29 08:12:12;;;;;;;;;14.50;12.00;;;;;8.55;100.00;102964.16;5124396;27;45416;-81
2022/01/29 08:14:37;;;;;;;;;14.00;10.25;;;;;8.59;100.00;102961.41;5119481;27;45445;-81
2022/01/29 08:17:03;;;;;;;;;9.00;9.00;;;;;8.63;100.00;102968.38;5123406;27;45485;-81
2022/01/29 08:19:29;;;;;;;;;13.25;11.50;;;;;8.67;100.00;102966.53;5120854;27;45409;-81
2022/01/29 08:21:54;;;;;;;;;12.75;9.00;;;;;8.73;100.00;102964.59;5117532;27;45572;-81
2022/01/29 08:24:21;;;;;;;;;13.25;10.75;;;;;8.77;100.00;102960.13;5119189;27;45007;-81
2022/01/29 08:26:46;;;;;;;;;14.00;10.60;;;;;8.84;100.00;102953.75;5118564;27;44800;-81
2022/01/29 08:29:11;;;;;;;;;9.25;7.75;;;;;8.88;100.00;102943.94;5117787;27;45746;-82
2022/01/29 08:31:37;;;;;;;;;9.75;8.00;;;;;8.90;100.00;102945.66;5117805;27;45422;-82
2022/01/29 08:34:02;;;;;;;;;11.75;8.75;;;;;8.93;100.00;102956.19;5117115;27;45138;-81
2022/01/29 08:36:27;;;;;;;;;7.75;6.75;;;;;8.97;100.00;102952.56;5118394;27;45433;-80
2022/01/29 08:38:53;;;;;;;;;7.75;7.00;;;;;9.00;100.00;102952.47;5099297;27;45522;-80
2022/01/29 08:41:18;;;;;;;;;10.00;8.25;;;;;9.05;100.00;102951.50;5118062;27;45517;-81
2022/01/29 08:43:43;;;;;;;;;6.75;6.75;;;;;9.09;100.00;102953.13;5118148;27;45491;-81
2022/01/29 08:46:09;;;;;;;;;8.75;8.75;;;;;9.09;100.00;102958.44;5120025;27;44740;-84
2022/01/29 08:48:35;;;;;;;;;8.25;8.25;;;;;9.07;100.00;102960.28;5112863;27;45472;-81
2022/01/29 08:51:01;;;;;;;;;6.00;6.00;;;;;9.01;100.00;102948.91;5099588;27;44711;-81
2022/01/29 08:53:26;;;;;;;;;7.25;4.75;;;;;8.97;100.00;102949.91;5097966;27;44932;-81
2022/01/29 08:55:51;;;;;;;;;9.00;9.00;;;;;8.95;100.00;102953.50;5098153;27;45315;-80
2022/01/29 08:58:17;;;;;;;;;7.25;7.25;;;;;9.02;100.00;102945.34;5097384;27;45076;-81
2022/01/29 09:00:45;;;;;;;;;5.50;5.25;;;;;9.00;100.00;102935.72;5096899;27;45339;-81
2022/01/29 09:03:12;;;;;;;;;5.00;5.00;;;;;9.03;100.00;102946.22;5096197;27;46049;-82
2022/01/29 09:05:37;;;;;;;;;9.40;6.40;;;;;9.13;100.00;102941.56;5097678;27;44694;-82
2022/01/29 09:08:06;;;;;;;;;4.00;4.00;;;;;9.11;100.00;102938.94;5101501;27;45316;-80
2022/01/29 09:10:31;;;;;;;;;7.50;4.75;;;;;9.13;100.00;102941.56;5103329;27;45371;-81
2022/01/29 09:12:57;;;;;;;;;3.75;3.75;;;;;9.15;100.00;102943.28;5103756;27;45254;-81
2022/01/29 09:15:22;;;;;;;;;2.50;1.25;;;;;9.19;100.00;102939.63;5102227;27;44803;-82
2022/01/29 09:17:48;;;;;;;;;3.75;3.75;;;;;9.23;100.00;102943.97;5099985;27;44725;-82
2022/01/29 09:20:14;;;;;;;;;3.75;3.75;;;;;9.23;100.00;102951.91;5100583;27;45374;-81
2022/01/29 09:22:40;;;;;;;;;3.00;3.00;;;;;9.25;100.00;102950.06;5101956;27;45341;-82
2022/01/29 09:25:05;;;;;;;;;5.75;5.75;;;;;9.34;100.00;102943.66;5103502;27;44764;-83
2022/01/29 09:27:31;;;;;;;;;4.75;4.75;;;;;9.42;100.00;102932.84;5105823;27;45401;-82
2022/01/29 09:29:56;;;;;;;;;8.00;6.50;;;;;9.48;100.00;102932.69;5106847;27;45391;-83
2022/01/29 09:32:22;;;;;;;;;8.00;6.75;;;;;9.48;100.00;102935.34;5105495;27;45346;-83
2022/01/29 09:34:47;;;;;;;;;5.00;4.25;;;;;9.55;100.00;102930.72;5100708;27;45445;-84
2022/01/29 09:37:13;;;;;;;;;7.00;5.00;;;;;9.61;100.00;102931.44;5100600;27;45315;-83
2022/01/29 09:39:38;;;;;;;;;6.75;5.00;;;;;9.66;100.00;102920.69;5100833;27;44787;-82
2022/01/29 09:42:04;;;;;;;;;7.50;6.00;;;;;9.71;100.00;102916.13;5082419;27;45702;-80
2022/01/29 09:44:31;;;;;;;;;5.00;5.00;;;;;9.75;100.00;102915.97;5099620;27;45340;-80
2022/01/29 09:46:57;;;;;;;;;6.20;6.20;;;;;9.89;100.00;102914.72;5099131;27;44915;-82
2022/01/29 09:49:22;;;;;;;;;5.80;5.20;;;;;9.95;100.00;102915.41;5111815;27;44798;-81
2022/01/29 09:51:48;;;;;;;;;4.75;4.50;;;;;9.88;100.00;102913.84;5101223;27;45432;-81
2022/01/29 09:54:13;;;;;;;;;5.25;5.25;;;;;9.89;100.00;102920.91;5119819;27;44822;-82
2022/01/29 09:56:38;;;;;;;;;10.50;9.00;;;;;9.91;100.00;102927.06;5101388;27;45486;-81
2022/01/29 09:59:04;;;;;;;;;7.00;7.00;;;;;9.82;100.00;102922.00;5119584;27;44819;-82
2022/01/29 10:01:29;;;;;;;;;7.50;7.00;;;;;9.83;100.00;102923.75;5101352;27;46173;-81
2022/01/29 10:04:05;;;;;;;;;5.75;5.75;;;;;9.72;100.00;102924.06;5120731;27;44787;-81
2022/01/29 10:06:32;;;;;;;;;9.40;8.40;;;;;9.74;100.00;102929.31;5128107;27;44777;-81
2022/01/29 10:08:59;;;;;;;;;8.00;3.60;;;;;9.64;100.00;102939.31;5123529;27;44914;-81
2022/01/29 10:11:26;;;;;;;;;5.20;5.00;;;;;9.67;100.00;102933.94;5120714;27;45560;-82
2022/01/29 10:13:58;;;;;;;;;4.00;4.00;;;;;9.64;100.00;102935.78;5120013;27;44764;-82
2022/01/29 10:16:25;;;;;;;;;6.80;6.80;;;;;9.65;100.00;102940.19;5120605;27;45414;-80
2022/01/29 10:19:03;;;;;;;;;5.00;5.00;;;;;9.78;100.00;102945.09;5120706;27;45162;-82
2022/01/29 10:21:36;;;;;;;;;5.80;5.80;;;;;9.69;100.00;102937.41;5120554;27;45273;-81
2022/01/29 10:24:05;;;;;;;;;4.20;4.20;;;;;9.65;100.00;102924.25;5122055;27;44744;-82
2022/01/29 10:26:37;;;;;;;;;6.20;6.20;;;;;9.67;100.00;102948.97;5123253;27;44779;-82
2022/01/29 10:29:06;;;;;;;;;7.20;7.20;;;;;9.69;100.00;102955.09;5121580;27;45223;-82
2022/01/29 10:31:47;;;;;;;;;8.40;8.40;;;;;9.65;100.00;102945.50;5119586;27;45088;-82
2022/01/29 10:34:26;;;;;;;;;3.40;3.40;;;;;9.60;100.00;102940.31;5119434;27;44702;-81
2022/01/29 10:37:26;;;;;;;;;5.00;5.00;;;;;9.59;100.00;102940.34;5119517;27;45387;-80
2022/01/29 10:40:00;;;;;;;;;6.80;6.00;;;;;9.63;100.00;102942.03;5118374;27;45417;-81
2022/01/29 10:42:32;;;;;;;;;4.20;4.20;;;;;9.74;100.00;102938.13;5122899;27;45349;-83
2022/01/29 10:45:02;;;;;;;;;4.60;4.60;;;;;9.89;100.00;102935.97;5092184;27;45366;-83
2022/01/29 10:47:29;;;;;;;;;5.00;5.00;;;;;9.87;100.00;102924.53;5097869;27;45497;-84
2022/01/29 10:49:59;;;;;;;;;7.40;6.80;;;;;9.88;100.00;102929.78;5118356;27;45477;-83
2022/01/29 10:52:30;;;;;;;;;5.40;4.40;;;;;9.93;100.00;102930.53;5111508;27;45261;-82
2022/01/29 10:54:59;;;;;;;;;4.60;4.60;;;;;9.99;100.00;102925.03;5087898;27;45434;-82
2022/01/29 10:57:31;;;;;;;;;5.40;5.40;;;;;10.08;100.00;102923.88;5118359;27;45364;-82
2022/01/29 10:59:57;;;;;;;;;8.20;6.00;;;;;10.10;100.00;102922.03;5115363;27;45508;-84
2022/01/29 11:02:29;;;;;;;;;6.00;6.00;;;;;10.08;100.00;102929.19;5089493;27;47490;-83
2022/01/29 11:04:55;;;;;;;;;4.80;4.00;;;;;10.09;100.00;102933.59;5108817;27;44835;-82
2022/01/29 11:07:27;;;;;;;;;3.60;3.60;;;;;10.17;100.00;102918.31;5118730;27;45397;-82
2022/01/29 11:09:53;;;;;;;;;7.80;5.00;;;;;10.18;100.00;102927.16;5085165;27;45166;-81
2022/01/29 11:12:25;;;;;;;;;5.20;5.00;;;;;10.17;100.00;102925.41;5109329;27;45476;-82
2022/01/29 11:14:53;;;;;;;;;5.80;5.80;;;;;10.13;100.00;102927.28;5118650;27;44798;-82
2022/01/29 11:17:22;;;;;;;;;7.40;6.00;;;;;10.05;100.00;102923.97;5119132;27;45244;-83
2022/01/29 11:19:48;;;;;;;;;3.60;3.00;;;;;10.05;100.00;102929.28;5114866;27;44663;-82
2022/01/29 11:22:19;;;;;;;;;3.75;3.75;;;;;10.07;100.00;102924.81;5121318;27;45370;-82